Time;durP1;ratioP1;P1;durP2;ratioP2;P2;SDS_P1;SDS_P2;PMS_P1;PMS_P2;Temp;Humidity;BMP_temperature;BMP_pressure;BME280_temperature;BME280_humidity;BME280_pressure;Samples;Min_cycle;Max_cycle;Signal;HPM_P1;HPM_P2
2024/04/12 00:01:04;;;;;;;0.00;0.00;;;;;;;-145.06;100.00;51127.00;11294828;26;20002;-78
2024/04/12 00:06:14;;;;;;;0.10;0.10;;;;;;;-145.06;100.00;51127.00;11289755;26;20449;-77
2024/04/12 00:11:16;;;;;;;0.10;0.10;;;;;;;-145.06;100.00;51129.00;11305139;26;20009;-77
2024/04/12 00:16:17;;;;;;;0.10;0.10;;;;;;;-145.06;100.00;51102.69;11297614;26;19999;-77
2024/04/12 00:21:17;;;;;;;0.00;0.00;;;;;;;-145.06;100.00;51131.03;11306833;26;20007;-77
2024/04/12 00:26:18;;;;;;;0.10;0.10;;;;;;;-145.06;100.00;51120.91;11291574;26;20020;-77
2024/04/12 00:31:18;;;;;;;0.10;0.10;;;;;;;-145.06;100.00;51112.81;11299893;26;20012;-77
2024/04/12 00:36:24;;;;;;;0.05;0.05;;;;;;;-145.06;100.00;51114.84;11297264;26;20363;-77
2024/04/12 00:41:24;;;;;;;0.10;0.10;;;;;;;-145.06;100.00;51102.69;11297466;26;20003;-77
2024/04/12 00:46:25;;;;;;;0.10;0.10;;;;;;;-145.06;100.00;51090.56;11293884;26;20336;-78
2024/04/12 00:51:27;;;;;;;0.10;0.10;;;;;;;-145.06;100.00;51114.84;11296538;26;19999;-77
2024/04/12 00:56:30;;;;;;;0.10;0.10;;;;;;;-145.06;100.00;51106.75;11288510;26;20027;-77
2024/04/12 01:01:30;;;;;;;0.00;0.00;;;;;;;-145.06;100.00;51094.59;11300355;26;20009;-77
2024/04/12 01:06:31;;;;;;;0.10;0.10;;;;;;;-145.06;100.00;51084.50;11299549;26;19999;-77
2024/04/12 01:11:32;;;;;;;0.10;0.10;;;;;;;-145.06;100.00;51070.31;11306826;26;19999;-77
2024/04/12 01:16:34;;;;;;;0.10;0.10;;;;;;;-145.06;100.00;51056.16;11299713;26;20448;-77
2024/04/12 01:21:34;;;;;;;0.10;0.10;;;;;;;-145.06;100.00;51078.41;11314896;26;20002;-77
2024/04/12 01:26:35;;;;;;;0.10;0.10;;;;;;;-145.06;100.00;51086.50;11311245;26;20010;-77
2024/04/12 01:31:38;;;;;;;0.10;0.10;;;;;;;-145.06;100.00;51104.72;11299736;26;20002;-77
2024/04/12 01:36:39;;;;;;;0.00;0.00;;;;;;;-145.06;100.00;51141.16;11310042;26;20347;-77
2024/04/12 01:41:40;;;;;;;0.00;0.00;;;;;;;-145.06;100.00;51118.91;11321309;26;20297;-78
2024/04/12 01:46:40;;;;;;;0.10;0.10;;;;;;;-145.06;100.00;51143.19;11300429;26;20003;-78
2024/04/12 01:51:41;;;;;;;0.00;0.00;;;;;;;-145.06;100.00;51131.03;11309500;26;19999;-78
2024/04/12 01:56:47;;;;;;;0.00;0.00;;;;;;;-145.06;100.00;51143.19;11309607;26;20009;-77
2024/04/12 02:01:52;;;;;;;0.10;0.10;;;;;;;-145.06;100.00;51139.13;11314653;26;20016;-77
2024/04/12 02:06:52;;;;;;;0.00;0.00;;;;;;;-145.06;100.00;51181.63;11305356;26;20008;-77
2024/04/12 02:11:53;;;;;;;0.10;0.10;;;;;;;-145.06;100.00;51171.50;11297274;26;20012;-77
2024/04/12 02:16:53;;;;;;;0.10;0.10;;;;;;;-145.06;100.00;51193.78;11319570;26;20519;-76
2024/04/12 02:21:54;;;;;;;0.10;0.10;;;;;;;-145.06;100.00;51199.84;11305196;26;20011;-77
2024/04/12 02:26:54;;;;;;;0.10;0.10;;;;;;;-145.06;100.00;51187.69;11303446;26;20448;-77
2024/04/12 02:31:55;;;;;;;0.10;0.10;;;;;;;-145.06;100.00;51195.78;11302224;26;20360;-78
2024/04/12 02:37:01;;;;;;;0.10;0.10;;;;;;;-145.06;100.00;51189.72;11314828;26;20009;-77
2024/04/12 02:42:02;;;;;;;0.10;0.10;;;;;;;-145.06;100.00;51173.53;11315712;26;20542;-77
2024/04/12 02:47:04;;;;;;;0.10;0.10;;;;;;;-145.06;100.00;51189.72;11319482;26;20002;-78
2024/04/12 02:52:05;;;;;;;0.10;0.10;;;;;;;-145.06;100.00;51163.41;11312319;26;20074;-78
2024/04/12 02:57:05;;;;;;;0.00;0.00;;;;;;;-145.06;100.00;51106.75;11313565;26;20079;-77
2024/04/12 03:02:05;;;;;;;0.10;0.10;;;;;;;-145.06;100.00;51116.88;11308677;26;20014;-77
2024/04/12 03:07:12;;;;;;;0.10;0.10;;;;;;;-145.06;100.00;51122.94;11320554;26;19999;-77
2024/04/12 03:12:12;;;;;;;0.10;0.10;;;;;;;-145.06;100.00;51116.88;11314785;26;20110;-77
2024/04/12 03:17:12;;;;;;;0.10;0.10;;;;;;;-145.06;100.00;51106.75;11300340;26;20082;-77
2024/04/12 03:22:13;;;;;;;0.10;0.10;;;;;;;-145.06;100.00;51116.88;11304757;26;19998;-77
2024/04/12 03:27:13;;;;;;;0.07;0.07;;;;;;;-145.06;100.00;51100.69;11300366;26;20003;-77
2024/04/12 03:32:14;;;;;;;0.00;0.00;;;;;;;-145.06;100.00;51092.59;11293248;26;20066;-77
2024/04/12 03:37:23;;;;;;;0.00;0.00;;;;;;;-145.06;100.00;51086.50;11295769;26;20010;-77
2024/04/12 03:42:28;;;;;;;0.10;0.10;;;;;;;-145.06;100.00;51094.59;11304239;26;20072;-77
2024/04/12 03:47:28;;;;;;;0.10;0.10;;;;;;;-145.06;100.00;51086.50;11303638;26;20034;-77
2024/04/12 03:52:29;;;;;;;0.10;0.10;;;;;;;-145.06;100.00;51088.53;11305441;26;20471;-77
2024/04/12 03:57:29;;;;;;;0.10;0.10;;;;;;;-145.06;100.00;51118.91;11297885;26;20017;-77
2024/04/12 04:02:29;;;;;;;0.10;0.10;;;;;;;-145.06;100.00;51124.97;11319716;26;20052;-77
2024/04/12 04:07:30;;;;;;;0.05;0.05;;;;;;;-145.06;100.00;51127.00;11299367;26;20354;-77
2024/04/12 04:12:32;;;;;;;0.00;0.00;;;;;;;-145.06;100.00;51135.09;11295045;26;20017;-77
2024/04/12 04:17:33;;;;;;;0.00;0.00;;;;;;;-145.06;100.00;51187.69;11305872;26;19999;-77
2024/04/12 04:27:34;;;;;;;0.10;0.10;;;;;;;-145.06;100.00;51252.47;11330287;26;20083;-77
2024/04/12 04:32:34;;;;;;;0.10;0.10;;;;;;;-145.06;100.00;51224.13;11286482;26;20010;-77
2024/04/12 04:37:39;;;;;;;0.10;0.10;;;;;;;-145.06;100.00;51258.53;11301634;26;20002;-78
2024/04/12 04:42:43;;;;;;;0.10;0.10;;;;;;;-145.06;100.00;51262.59;11315717;26;20928;-77
2024/04/12 04:47:44;;;;;;;0.10;0.10;;;;;;;-145.06;100.00;51296.97;11312489;26;19999;-77
2024/04/12 04:52:46;;;;;;;0.00;0.00;;;;;;;-145.06;100.00;51327.34;11300192;26;19998;-77
2024/04/12 04:57:54;;;;;;;0.10;0.10;;;;;;;-145.06;100.00;51337.47;11295177;26;20456;-77
2024/04/12 05:02:55;;;;;;;0.00;0.00;;;;;;;-145.06;100.00;51319.25;11291547;26;20034;-77
2024/04/12 05:07:56;;;;;;;0.10;0.10;;;;;;;-145.06;100.00;51337.47;11294356;26;20003;-77
2024/04/12 05:12:57;;;;;;;0.05;0.05;;;;;;;-145.06;100.00;51369.84;11294760;26;20013;-77
2024/04/12 05:18:03;;;;;;;0.00;0.00;;;;;;;-145.06;100.00;51329.38;11310206;26;20018;-77
2024/04/12 05:23:03;;;;;;;0.00;0.00;;;;;;;-145.06;100.00;51365.78;11298972;26;20001;-77
2024/04/12 05:28:12;;;;;;;0.00;0.00;;;;;;;-145.06;100.00;51349.59;11315624;26;20013;-77
2024/04/12 05:33:16;;;;;;;0.00;0.00;;;;;;;-145.06;100.00;51282.81;11297452;26;20341;-77
2024/04/12 05:38:21;;;;;;;0.10;0.10;;;;;;;-145.06;100.00;51248.41;11302401;26;20103;-77
2024/04/12 05:43:21;;;;;;;0.10;0.10;;;;;;;-145.06;100.00;51187.69;11303828;26;20031;-78
2024/04/12 05:48:22;;;;;;;0.10;0.10;;;;;;;-145.06;100.00;51167.47;11293252;26;20017;-77
2024/04/12 05:53:30;;;;;;;0.00;0.00;;;;;;;-145.06;100.00;51159.38;11298740;26;19999;-77
2024/04/12 05:58:31;;;;;;;0.10;0.10;;;;;;;-145.06;100.00;51143.19;11300534;26;20409;-77
2024/04/12 06:03:31;;;;;;;0.00;0.00;;;;;;;-145.06;100.00;51124.97;11292086;26;20338;-77
2024/04/12 06:08:35;;;;;;;0.10;0.10;;;;;;;-145.06;100.00;51118.91;11295793;26;20002;-78
2024/04/12 06:13:36;;;;;;;0.10;0.10;;;;;;;-145.06;100.00;51151.28;11301755;26;20503;-77
2024/04/12 06:18:36;;;;;;;0.00;0.00;;;;;;;-145.06;100.00;51183.66;11316413;26;20009;-77
2024/04/12 06:23:37;;;;;;;0.10;0.10;;;;;;;-145.06;100.00;51175.56;11315684;26;20329;-77
2024/04/12 06:28:38;;;;;;;0.00;0.00;;;;;;;-145.06;100.00;51122.94;11305091;26;20529;-77
2024/04/12 06:33:39;;;;;;;0.00;0.00;;;;;;;-145.06;100.00;51098.66;11318337;26;20013;-77
2024/04/12 06:38:40;;;;;;;0.10;0.10;;;;;;;-145.06;100.00;51088.53;11304226;26;19999;-77
2024/04/12 06:43:43;;;;;;;0.10;0.10;;;;;;;-145.06;100.00;50977.22;11320669;26;20461;-77
2024/04/12 06:48:43;;;;;;;0.00;0.00;;;;;;;-145.06;100.00;50884.16;11294941;26;19998;-77
2024/04/12 06:53:46;;;;;;;0.10;0.10;;;;;;;-145.06;100.00;50805.22;11296988;26;20464;-77
2024/04/12 06:58:47;;;;;;;0.10;0.10;;;;;;;-145.06;100.00;50746.53;11321756;26;20013;-78
2024/04/12 07:03:48;;;;;;;0.03;0.03;;;;;;;-145.06;100.00;50738.44;11314349;26;20526;-78
2024/04/12 07:08:50;;;;;;;0.10;0.10;;;;;;;-145.06;100.00;50697.97;11307545;26;20440;-78
2024/04/12 07:13:51;;;;;;;0.00;0.00;;;;;;;-145.06;100.00;50782.97;11299236;26;20369;-77
2024/04/12 07:18:51;;;;;;;0.00;0.00;;;;;;;-145.06;100.00;50803.19;11301069;26;20003;-72
2024/04/12 07:23:53;;;;;;;0.10;0.10;;;;;;;-145.06;100.00;50797.13;11305468;26;20076;-70
2024/04/12 07:28:58;;;;;;;0.10;0.10;;;;;;;-145.06;100.00;50910.44;11301688;26;20017;-68
2024/04/12 07:33:59;;;;;;;0.00;0.00;;;;;;;-145.06;100.00;50952.94;11304494;26;20062;-71
2024/04/12 07:39:05;;;;;;;0.00;0.00;;;;;;;-145.06;100.00;50987.34;11304884;26;20006;-68
2024/04/12 07:44:05;;;;;;;0.00;0.00;;;;;;;-145.06;100.00;51025.81;11303283;26;20454;-68
2024/04/12 07:49:08;;;;;;;0.10;0.10;;;;;;;-145.06;100.00;51017.72;11308570;26;20066;-68
2024/04/12 07:54:11;;;;;;;0.03;0.03;;;;;;;-145.06;100.00;51062.22;11312238;26;20039;-68
2024/04/12 07:59:25;;;;;;;0.00;0.00;;;;;;;-145.06;100.00;51042.00;11311783;26;19994;-68
2024/04/12 08:04:36;;;;;;;0.10;0.10;;;;;;;-145.06;100.00;51106.75;11281165;26;20061;-69
2024/04/12 08:09:44;;;;;;;0.00;0.00;;;;;;;-145.06;100.00;51155.31;11288704;26;20010;-68
2024/04/12 08:14:55;;;;;;;0.00;0.00;;;;;;;-145.06;100.00;51110.78;11300389;26;20799;-69
2024/04/12 08:20:00;;;;;;;0.10;0.10;;;;;;;-145.06;100.00;51120.91;11306834;26;20014;-68
2024/04/12 08:25:02;;;;;;;0.10;0.10;;;;;;;-145.06;100.00;51167.47;11305028;26;20018;-68
2024/04/12 08:30:13;;;;;;;0.00;0.00;;;;;;;-145.06;100.00;51171.50;11335026;26;20001;-69
2024/04/12 08:35:19;;;;;;;0.10;0.10;;;;;;;-145.06;100.00;51191.75;11315483;26;20014;-68
2024/04/12 08:40:21;;;;;;;0.10;0.10;;;;;;;-145.06;100.00;51169.50;11323278;26;20002;-68
2024/04/12 08:45:30;;;;;;;0.10;0.10;;;;;;;-145.06;100.00;51177.59;11315836;26;20017;-68
2024/04/12 08:50:31;;;;;;;0.10;0.10;;;;;;;-145.06;100.00;51169.50;11318398;26;20014;-68
2024/04/12 08:55:33;;;;;;;0.00;0.00;;;;;;;-145.06;100.00;51100.69;11321267;26;20014;-68
2024/04/12 09:00:34;;;;;;;0.00;0.00;;;;;;;-145.06;100.00;51222.09;11329561;26;20348;-68
2024/04/12 09:05:39;;;;;;;0.10;0.10;;;;;;;-145.06;100.00;51274.72;11312379;26;20372;-69
2024/04/12 09:10:40;;;;;;;0.00;0.00;;;;;;;-145.06;100.00;51319.25;11324216;26;20398;-69
2024/04/12 09:15:45;;;;;;;0.00;0.00;;;;;;;-145.06;100.00;51325.31;11306724;26;20003;-69
2024/04/12 09:20:52;;;;;;;0.10;0.10;;;;;;;-145.06;100.00;51345.56;11322870;26;20006;-68
2024/04/12 09:25:55;;;;;;;0.10;0.10;;;;;;;-145.06;100.00;51349.59;11312191;26;20008;-68
2024/04/12 09:36:52;;;;;;;0.03;0.03;;;;;;;-145.06;100.00;51373.91;11317161;26;20478;-68
2024/04/12 09:41:56;;;;;;;0.00;0.00;;;;;;;-145.06;100.00;51325.31;11301980;26;20105;-68
2024/04/12 10:40:16;;;;;;;0.10;0.10;;;;;;;-145.06;100.00;51284.84;11300105;26;20002;-69
2024/04/12 10:45:17;;;;;;;0.10;0.10;;;;;;;-145.06;100.00;51272.69;11301538;26;20026;-69
2024/04/12 10:50:19;;;;;;;0.03;0.03;;;;;;;-145.06;100.00;51248.41;11302343;26;20002;-70
2024/04/12 10:55:19;;;;;;;0.10;0.10;;;;;;;-145.06;100.00;51207.94;11302311;26;20014;-69
2024/04/12 11:00:28;;;;;;;0.00;0.00;;;;;;;-145.06;100.00;51191.75;11301007;26;20404;-69
2024/04/12 11:10:40;;;;;;;0.10;0.10;;;;;;;-145.06;100.00;51165.44;11302382;26;19998;-69
2024/04/12 11:31:20;;;;;;;0.05;0.05;;;;;;;-145.06;100.00;51159.38;11301255;26;20006;-69
2024/04/12 11:36:21;;;;;;;0.00;0.00;;;;;;;-145.06;100.00;51139.13;11300485;26;20350;-69
2024/04/12 11:41:24;;;;;;;0.10;0.10;;;;;;;-145.06;100.00;51124.97;11300809;26;19999;-70
2024/04/12 11:46:24;;;;;;;0.10;0.10;;;;;;;-145.06;100.00;51185.69;11300795;26;20002;-69
2024/04/12 11:51:33;;;;;;;0.10;0.10;;;;;;;-145.06;100.00;51171.50;11299466;26;20002;-69
2024/04/12 11:56:34;;;;;;;0.10;0.10;;;;;;;-145.06;100.00;51179.59;11301116;26;20002;-70
2024/04/12 12:01:37;;;;;;;0.10;0.10;;;;;;;-145.06;100.00;51155.31;11300560;26;20344;-70
2024/04/12 12:06:38;;;;;;;0.10;0.10;;;;;;;-145.06;100.00;51157.34;11299269;26;20483;-70
2024/04/12 12:11:42;;;;;;;0.00;0.00;;;;;;;-145.06;99.09;51218.06;11299707;26;20393;-70
2024/04/12 12:16:43;;;;;;;0.00;0.00;;;;;;;-145.06;100.00;51169.50;11299117;26;19999;-70
2024/04/12 12:21:43;;;;;;;0.00;0.00;;;;;;;-145.06;94.11;51236.28;11299811;26;20019;-70
2024/04/12 12:26:44;;;;;;;0.00;0.00;;;;;;;-145.06;98.41;51179.59;11300448;26;20002;-70
2024/04/12 12:31:46;;;;;;;0.10;0.10;;;;;;;-145.06;95.60;51203.88;11299547;26;20011;-70
2024/04/12 12:36:49;;;;;;;0.00;0.00;;;;;;;-145.06;93.83;51133.06;11299601;26;20002;-70
2024/04/12 12:41:50;;;;;;;0.00;0.00;;;;;;;-145.06;87.33;51197.81;11298226;26;19999;-70
2024/04/12 12:46:50;;;;;;;0.00;0.00;;;;;;;-145.06;86.19;51228.19;11300636;26;19999;-70
2024/04/12 12:51:54;;;;;;;0.00;0.00;;;;;;;-145.06;86.95;51157.34;11294762;26;20003;-71
2024/04/12 12:56:57;;;;;;;0.00;0.00;;;;;;;-145.06;87.75;51141.16;11298651;26;20423;-70
2024/04/12 13:01:57;;;;;;;0.10;0.10;;;;;;;-145.06;80.18;51214.00;11301365;26;20534;-70
2024/04/12 13:06:59;;;;;;;0.10;0.10;;;;;;;-145.06;81.03;51242.34;11306443;26;20013;-70
2024/04/12 13:12:00;;;;;;;0.00;0.00;;;;;;;-145.06;79.64;51201.88;11308877;26;20925;-71
2024/04/12 13:17:02;;;;;;;0.10;0.10;;;;;;;-145.06;72.38;51276.75;11306206;26;20007;-70
2024/04/12 13:22:04;;;;;;;0.10;0.10;;;;;;;-145.06;73.71;51268.66;11305991;26;20302;-71
2024/04/12 13:27:07;;;;;;;0.10;0.10;;;;;;;-145.06;71.37;51313.19;11306493;26;20003;-70
2024/04/12 13:32:10;;;;;;;0.10;0.10;;;;;;;-145.06;69.38;51373.91;11304697;26;20076;-70
2024/04/12 13:37:11;;;;;;;0.10;0.10;;;;;;;-145.06;70.28;51464.97;11302903;26;20420;-71
2024/04/12 13:42:11;;;;;;;0.10;0.10;;;;;;;-145.06;71.10;51458.91;11305036;26;20077;-71
2024/04/12 13:52:33;;;;;;;0.00;0.00;;;;;;;-145.06;68.86;51588.44;11301868;26;20011;-70
2024/04/12 13:57:34;;;;;;;0.10;0.10;;;;;;;-145.06;70.08;51586.41;11302217;26;20003;-70
2024/04/12 14:02:35;;;;;;;0.00;0.00;;;;;;;-145.06;70.93;51594.50;11301638;26;19999;-70
2024/04/12 14:07:35;;;;;;;0.10;0.10;;;;;;;-145.06;70.70;51614.75;11301754;26;20046;-70
2024/04/12 14:12:36;;;;;;;0.00;0.00;;;;;;;-145.06;72.81;51574.25;11302867;26;20079;-70
2024/04/12 14:17:38;;;;;;;0.00;0.00;;;;;;;-145.06;73.32;51521.63;11301624;26;19995;-70
2024/04/12 14:22:39;;;;;;;0.10;0.10;;;;;;;-145.06;72.30;51531.75;11299499;26;20002;-70
2024/04/12 14:27:40;;;;;;;0.00;0.00;;;;;;;-145.06;65.29;51590.44;11309701;26;19999;-70
2024/04/12 14:32:48;;;;;;;0.10;0.10;;;;;;;-145.06;60.35;51665.34;11306600;26;20013;-71
2024/04/12 14:37:54;;;;;;;0.00;0.00;;;;;;;-145.06;58.61;51730.09;11311655;26;20498;-70
2024/04/12 14:42:54;;;;;;;0.10;0.10;;;;;;;-145.06;58.98;51742.25;11309760;26;20007;-70
2024/04/12 14:47:54;;;;;;;0.00;0.00;;;;;;;-145.06;74.39;51685.59;11294845;26;20007;-71
2024/04/12 14:52:55;;;;;;;0.00;0.00;;;;;;;-145.06;79.50;51776.66;11297901;26;20459;-70
2024/04/12 14:57:55;;;;;;;0.00;0.00;;;;;;;-145.06;84.78;51815.13;11305246;26;20400;-71
2024/04/12 15:50:30;;;;;;;0.00;0.00;;;;;;;-145.06;98.23;51958.84;11304017;26;20355;-71
2024/04/12 15:55:35;;;;;;;0.10;0.10;;;;;;;-145.06;99.74;51938.59;11308998;26;20010;-70
2024/04/12 16:11:13;;;;;;;0.00;0.00;;;;;;;-145.06;100.00;51993.25;11311625;26;20034;-70
2024/04/12 16:16:13;;;;;;;0.00;0.00;;;;;;;-145.06;100.00;51968.94;11322085;26;19998;-70
2024/04/12 16:21:14;;;;;;;0.00;0.00;;;;;;;-145.06;100.00;51975.03;11318284;26;20006;-71
2024/04/12 16:26:16;;;;;;;0.00;0.00;;;;;;;-145.06;100.00;51975.03;11324497;26;20002;-70
2024/04/12 16:31:17;;;;;;;0.00;0.00;;;;;;;-145.06;100.00;51989.19;11312911;26;20002;-70
2024/04/12 16:36:17;;;;;;;0.00;0.00;;;;;;;-145.06;100.00;51991.22;11304904;26;20038;-70
2024/04/12 16:41:18;;;;;;;0.10;0.10;;;;;;;-145.06;100.00;51958.84;11336315;26;20010;-70
2024/04/12 16:46:18;;;;;;;0.00;0.00;;;;;;;-145.06;100.00;52001.34;11321926;26;20471;-70
2024/04/12 16:51:18;;;;;;;0.00;0.00;;;;;;;-145.06;100.00;52021.59;11326605;26;20519;-69
2024/04/12 16:56:21;;;;;;;0.00;0.00;;;;;;;-145.06;100.00;52074.22;11319123;26;20012;-70
2024/04/12 17:01:22;;;;;;;0.00;0.00;;;;;;;-145.06;100.00;52070.16;11311455;26;20031;-70
2024/04/12 17:06:26;;;;;;;0.00;0.00;;;;;;;-145.06;100.00;52074.22;11330188;26;20452;-70
2024/04/12 17:11:26;;;;;;;0.00;0.00;;;;;;;-145.06;100.00;52084.34;11318235;26;20389;-70
2024/04/12 17:16:26;;;;;;;0.10;0.10;;;;;;;-145.06;100.00;52112.66;11333085;26;20044;-69
2024/04/12 17:21:26;;;;;;;0.00;0.00;;;;;;;-145.06;100.00;52104.56;11320607;26;19995;-69
2024/04/12 17:26:27;;;;;;;0.00;0.00;;;;;;;-145.06;100.00;52090.41;11338648;26;19998;-70
2024/04/12 17:31:27;;;;;;;0.10;0.10;;;;;;;-145.06;100.00;52108.63;11329806;26;20499;-70
2024/04/12 17:36:27;;;;;;;0.00;0.00;;;;;;;-145.06;100.00;52155.19;11332216;26;20495;-70
2024/04/12 17:41:27;;;;;;;0.10;0.10;;;;;;;-145.06;100.00;52126.84;11331177;26;20495;-69
2024/04/12 17:46:28;;;;;;;0.10;0.10;;;;;;;-145.06;100.00;52149.09;11327336;26;20020;-69
2024/04/12 17:51:28;;;;;;;0.10;0.10;;;;;;;-145.06;100.00;52163.28;11327056;26;20009;-70
2024/04/12 17:56:28;;;;;;;0.10;0.10;;;;;;;-145.06;100.00;52149.09;11324339;26;20480;-69
2024/04/12 18:01:30;;;;;;;0.00;0.00;;;;;;;-145.06;100.00;52171.38;11321322;26;20003;-69
2024/04/12 18:06:30;;;;;;;0.00;0.00;;;;;;;-145.06;100.00;52173.41;11321997;26;20240;-70
2024/04/12 18:11:30;;;;;;;0.10;0.10;;;;;;;-145.06;100.00;52171.38;11316329;26;20018;-69
2024/04/12 18:16:31;;;;;;;0.10;0.10;;;;;;;-145.06;100.00;52195.66;11327137;26;20013;-69
2024/04/12 18:21:31;;;;;;;0.10;0.10;;;;;;;-145.06;100.00;52199.72;11332164;26;20002;-69
2024/04/12 18:26:31;;;;;;;0.10;0.10;;;;;;;-145.06;100.00;52193.66;11338216;26;20034;-69
2024/04/12 18:31:32;;;;;;;0.10;0.10;;;;;;;-145.06;100.00;52221.97;11310274;26;20729;-69
2024/04/12 18:36:39;;;;;;;0.00;0.00;;;;;;;-145.06;100.00;52221.97;11304358;26;19999;-69
2024/04/12 18:46:58;;;;;;;0.10;0.10;;;;;;;-145.06;100.00;52169.34;11316097;26;20002;-69
2024/04/12 18:52:01;;;;;;;0.03;0.03;;;;;;;-145.06;100.00;52159.22;11315334;26;20002;-69
2024/04/12 18:57:03;;;;;;;0.10;0.10;;;;;;;-145.06;100.00;52165.31;11304430;26;19999;-69
2024/04/12 19:02:04;;;;;;;0.10;0.10;;;;;;;-145.06;100.00;52163.28;11307333;26;19998;-69
2024/04/12 19:07:05;;;;;;;0.10;0.10;;;;;;;-145.06;100.00;52139.00;11305066;26;20018;-69
2024/04/12 19:12:08;;;;;;;0.10;0.10;;;;;;;-145.06;100.00;52155.19;11307397;26;20009;-69
2024/04/12 19:17:09;;;;;;;0.10;0.10;;;;;;;-145.06;100.00;52147.09;11306368;26;20075;-69
2024/04/12 19:22:09;;;;;;;0.00;0.00;;;;;;;-145.06;100.00;52128.88;11304689;26;20462;-68
2024/04/12 19:27:09;;;;;;;0.10;0.10;;;;;;;-145.06;100.00;52143.03;11308976;26;20373;-69
2024/04/12 19:32:09;;;;;;;0.10;0.10;;;;;;;-145.06;100.00;52098.50;11310988;26;20014;-69
2024/04/12 19:37:10;;;;;;;0.10;0.10;;;;;;;-145.06;100.00;52134.94;11306749;26;19999;-69
2024/04/12 19:42:10;;;;;;;0.10;0.10;;;;;;;-145.06;100.00;52136.97;11304195;26;20006;-68
2024/04/12 19:47:10;;;;;;;0.10;0.10;;;;;;;-145.06;100.00;52102.56;11305124;26;20244;-69
2024/04/12 19:52:11;;;;;;;0.10;0.10;;;;;;;-145.06;100.00;52098.50;11307743;26;20017;-68
2024/04/12 19:57:12;;;;;;;0.10;0.10;;;;;;;-145.06;100.00;52090.41;11304245;26;20074;-68
2024/04/12 20:02:13;;;;;;;0.00;0.00;;;;;;;-145.06;100.00;52088.38;11305292;26;20030;-68
2024/04/12 20:07:13;;;;;;;0.10;0.10;;;;;;;-145.06;100.00;52064.09;11309525;26;20002;-69
2024/04/12 20:12:18;;;;;;;0.10;0.10;;;;;;;-145.06;100.00;52078.25;11305372;26;20013;-68
2024/04/12 20:17:21;;;;;;;0.03;0.03;;;;;;;-145.06;100.00;52070.16;11316262;26;20235;-68
2024/04/12 20:22:24;;;;;;;0.10;0.10;;;;;;;-145.06;100.00;52094.47;11316484;26;20002;-69
2024/04/12 20:27:24;;;;;;;0.10;0.10;;;;;;;-145.06;100.00;52068.13;11315979;26;20037;-68
2024/04/12 20:32:24;;;;;;;0.10;0.10;;;;;;;-145.06;100.00;52062.06;11307294;26;20051;-68
2024/04/12 20:37:24;;;;;;;0.08;0.08;;;;;;;-145.06;100.00;52088.38;11317250;26;19998;-68
2024/04/12 20:42:25;;;;;;;0.10;0.10;;;;;;;-145.06;100.00;52035.75;11309258;26;20009;-68
2024/04/12 20:47:28;;;;;;;0.08;0.08;;;;;;;-145.06;100.00;52076.25;11313784;26;19998;-68
2024/04/12 20:52:28;;;;;;;0.10;0.10;;;;;;;-145.06;100.00;52029.69;11313599;26;20009;-68
2024/04/12 20:57:29;;;;;;;0.10;0.10;;;;;;;-145.06;100.00;52058.03;11311420;26;19998;-68
2024/04/12 21:02:29;;;;;;;0.10;0.10;;;;;;;-145.06;100.00;52056.00;11310791;26;20009;-68
2024/04/12 21:07:29;;;;;;;0.00;0.00;;;;;;;-145.06;100.00;52033.72;11310454;26;19998;-68
2024/04/12 21:12:29;;;;;;;0.10;0.10;;;;;;;-145.06;100.00;52039.81;11314816;26;20010;-68
2024/04/12 21:17:33;;;;;;;0.00;0.00;;;;;;;-145.06;100.00;51993.25;11310492;26;20009;-68
2024/04/12 21:22:34;;;;;;;0.10;0.10;;;;;;;-145.06;100.00;51999.31;11311633;26;20014;-68
2024/04/12 21:27:34;;;;;;;0.00;0.00;;;;;;;-145.06;100.00;51926.44;11310798;26;19999;-68
2024/04/12 21:32:34;;;;;;;0.00;0.00;;;;;;;-145.06;100.00;51885.97;11313849;26;20007;-68
2024/04/12 21:37:35;;;;;;;0.03;0.03;;;;;;;-145.06;100.00;51841.44;11312928;26;20006;-68
2024/04/12 21:42:35;;;;;;;0.10;0.10;;;;;;;-145.06;100.00;51851.56;11315109;26;19999;-68
2024/04/12 21:47:36;;;;;;;0.10;0.10;;;;;;;-145.06;100.00;51857.63;11308577;26;20003;-68
2024/04/12 21:52:36;;;;;;;0.10;0.10;;;;;;;-145.06;100.00;51877.88;11317950;26;19998;-68
2024/04/12 21:57:43;;;;;;;0.10;0.10;;;;;;;-145.06;100.00;51888.00;11314028;26;20010;-68
2024/04/12 22:02:45;;;;;;;0.10;0.10;;;;;;;-145.06;100.00;51855.59;11312470;26;20010;-68
2024/04/12 22:07:45;;;;;;;0.00;0.00;;;;;;;-145.06;100.00;51843.47;11308158;26;19999;-68
2024/04/12 22:12:46;;;;;;;0.00;0.00;;;;;;;-145.06;100.00;51817.16;11310819;26;20010;-68
2024/04/12 22:17:46;;;;;;;0.10;0.10;;;;;;;-145.06;100.00;51782.72;11308863;26;19998;-69
2024/04/12 22:22:46;;;;;;;0.15;0.15;;;;;;;-145.06;100.00;51770.59;11308790;26;20356;-69
2024/04/12 22:27:46;;;;;;;0.10;0.10;;;;;;;-145.06;100.00;51746.31;11305727;26;20014;-69
2024/04/12 22:32:47;;;;;;;0.10;0.10;;;;;;;-145.06;100.00;51722.00;11312903;26;20075;-69
2024/04/12 22:37:48;;;;;;;0.10;0.10;;;;;;;-145.06;100.00;51748.31;11306982;26;20009;-69
2024/04/12 22:42:48;;;;;;;0.00;0.00;;;;;;;-145.06;100.00;51746.31;11305877;26;20501;-69
2024/04/12 22:47:48;;;;;;;0.10;0.10;;;;;;;-145.06;100.00;51770.59;11304347;26;20033;-69
2024/04/12 22:52:50;;;;;;;0.10;0.10;;;;;;;-145.06;100.00;51746.31;11305807;26;20002;-69
2024/04/12 22:57:51;;;;;;;0.10;0.10;;;;;;;-145.06;100.00;51780.72;11308519;26;20002;-69
2024/04/12 23:02:51;;;;;;;0.10;0.10;;;;;;;-145.06;100.00;51794.88;11303557;26;19999;-69
2024/04/12 23:07:51;;;;;;;0.10;0.10;;;;;;;-145.06;100.00;51774.63;11308836;26;20010;-69
2024/04/12 23:12:51;;;;;;;0.10;0.10;;;;;;;-145.06;100.00;51760.47;11304210;26;20063;-69
2024/04/12 23:17:52;;;;;;;0.10;0.10;;;;;;;-145.06;100.00;51746.31;11309623;26;21763;-69
2024/04/12 23:22:52;;;;;;;0.00;0.00;;;;;;;-145.06;100.00;51713.91;11305975;26;20240;-69
2024/04/12 23:27:52;;;;;;;0.10;0.10;;;;;;;-145.06;100.00;51732.13;11305638;26;20001;-69
2024/04/12 23:32:53;;;;;;;0.08;0.08;;;;;;;-145.06;100.00;51717.97;11303339;26;20483;-69
2024/04/12 23:37:53;;;;;;;0.00;0.00;;;;;;;-145.06;100.00;51740.22;11300711;26;20717;-69
2024/04/12 23:42:53;;;;;;;0.10;0.10;;;;;;;-145.06;100.00;51746.31;11310476;26;20444;-69
2024/04/12 23:47:55;;;;;;;0.10;0.10;;;;;;;-145.06;100.00;51693.69;11305444;26;20025;-69
2024/04/12 23:52:55;;;;;;;0.10;0.10;;;;;;;-145.06;100.00;51645.09;11309241;26;20075;-69
2024/04/12 23:57:56;;;;;;;0.10;0.10;;;;;;;-145.06;100.00;51634.97;11306289;26;20341;-69
